createdAt,value
2022-08-21T00:00:59.032Z,78.71
2022-08-21T00:03:56.862Z,78.64
2022-08-21T00:06:55.657Z,78.51
2022-08-21T00:09:53.113Z,78.53
2022-08-21T00:12:50.754Z,78.27
2022-08-21T00:15:48.347Z,78.31
2022-08-21T00:18:45.873Z,78.18
2022-08-21T00:21:44.748Z,78.21
2022-08-21T00:24:42.734Z,78.29
2022-08-21T00:27:40.259Z,78.32
2022-08-21T00:30:37.763Z,77.91
2022-08-21T00:33:35.240Z,78.10
2022-08-21T00:36:32.706Z,78.24
2022-08-21T00:39:30.198Z,78.36
2022-08-21T00:42:27.674Z,78.34
2022-08-21T00:45:25.178Z,78.05
2022-08-21T00:48:22.686Z,78.19
2022-08-21T00:51:23.514Z,78.22
2022-08-21T00:54:21.017Z,78.05
2022-08-21T00:57:18.917Z,78.02
2022-08-21T01:00:16.574Z,78.00
2022-08-21T01:03:15.413Z,77.79
2022-08-21T01:06:12.908Z,78.04
2022-08-21T01:09:10.588Z,77.97
2022-08-21T01:12:08.077Z,77.92
2022-08-21T01:15:05.795Z,78.08
2022-08-21T01:18:03.284Z,78.07
2022-08-21T01:21:00.809Z,78.21
2022-08-21T01:23:58.269Z,78.08
2022-08-21T01:26:55.752Z,77.92
2022-08-21T01:29:53.202Z,77.92
2022-08-21T01:32:50.741Z,77.72
2022-08-21T01:35:48.286Z,78.03
2022-08-21T01:38:45.761Z,77.72
2022-08-21T01:41:43.220Z,77.96
2022-08-21T01:44:41.056Z,78.14
2022-08-21T01:47:38.537Z,78.09
2022-08-21T01:50:36.033Z,77.95
2022-08-21T01:53:35.065Z,78.24
2022-08-21T01:56:32.570Z,78.56
2022-08-21T01:59:30.063Z,78.59
2022-08-21T02:02:27.861Z,79.01
2022-08-21T02:05:25.336Z,79.05
2022-08-21T02:08:24.406Z,78.94
2022-08-21T02:11:21.894Z,79.09
2022-08-21T02:14:32.361Z,78.93
2022-08-21T02:17:30.371Z,79.18
2022-08-21T02:20:27.895Z,79.31
2022-08-21T02:23:27.246Z,79.43
2022-08-21T02:26:25.213Z,79.61
2022-08-21T02:29:22.674Z,79.35
2022-08-21T02:32:20.280Z,79.48
2022-08-21T02:35:17.747Z,79.77
2022-08-21T02:38:15.251Z,79.97
2022-08-21T02:41:12.727Z,79.86
2022-08-21T02:44:10.243Z,79.66
2022-08-21T02:47:07.746Z,79.88
2022-08-21T02:50:05.212Z,80.38
2022-08-21T02:53:02.709Z,80.17
2022-08-21T02:56:00.179Z,80.59
2022-08-21T02:58:57.681Z,80.63
2022-08-21T03:01:55.231Z,80.68
2022-08-21T03:04:52.713Z,80.63
2022-08-21T03:07:50.192Z,80.73
2022-08-21T03:10:47.659Z,80.73
2022-08-21T03:13:45.139Z,80.68
2022-08-21T03:16:43.318Z,80.63
2022-08-21T03:19:40.781Z,80.61
2022-08-21T03:22:38.269Z,80.64
2022-08-21T03:25:40.377Z,80.90
2022-08-21T03:28:38.613Z,80.68
2022-08-21T03:31:36.091Z,80.61
2022-08-21T03:34:33.594Z,80.63
2022-08-21T03:37:31.086Z,80.91
2022-08-21T03:40:28.714Z,81.13
2022-08-21T03:43:26.200Z,80.91
2022-08-21T03:46:24.741Z,81.33
2022-08-21T03:49:22.281Z,81.60
2022-08-21T03:52:19.918Z,81.40
2022-08-21T03:55:17.403Z,81.16
2022-08-21T03:58:16.682Z,81.38
2022-08-21T04:01:14.871Z,81.46
2022-08-21T04:04:12.361Z,81.83
2022-08-21T04:07:11.311Z,82.01
2022-08-21T04:10:08.827Z,81.81
2022-08-21T04:13:06.299Z,81.82
2022-08-21T04:16:03.813Z,81.95
2022-08-21T04:19:03.796Z,82.09
2022-08-21T04:22:01.289Z,82.23
2022-08-21T04:25:00.199Z,82.34
2022-08-21T04:27:58.371Z,82.10
2022-08-21T04:30:56.873Z,82.12
2022-08-21T04:33:54.338Z,82.14
2022-08-21T04:36:51.806Z,82.01
2022-08-21T04:39:53.433Z,82.24
2022-08-21T04:42:51.613Z,81.66
2022-08-21T04:45:49.245Z,81.72
2022-08-21T04:48:46.731Z,81.63
2022-08-21T04:51:44.206Z,81.69
2022-08-21T04:54:41.701Z,81.75
2022-08-21T04:57:48.726Z,82.01
2022-08-21T05:00:46.995Z,81.92
2022-08-21T05:03:44.483Z,81.55
2022-08-21T05:06:43.019Z,81.53
2022-08-21T05:09:40.492Z,81.39
2022-08-21T05:12:37.971Z,81.19
2022-08-21T05:15:35.908Z,81.25
2022-08-21T05:18:33.395Z,81.10
2022-08-21T05:21:31.004Z,81.09
2022-08-21T05:24:31.166Z,80.80
2022-08-21T05:27:31.574Z,80.84
2022-08-21T05:30:29.269Z,80.56
2022-08-21T05:33:26.746Z,80.53
2022-08-21T05:36:24.253Z,80.20
2022-08-21T05:39:22.087Z,80.26
2022-08-21T05:42:19.583Z,80.26
2022-08-21T05:45:17.064Z,80.32
2022-08-21T05:48:34.485Z,80.11
2022-08-21T05:51:32.389Z,80.06
2022-08-21T05:54:29.855Z,79.93
2022-08-21T05:57:27.529Z,79.80
2022-08-21T06:00:25.157Z,79.41
2022-08-21T06:03:22.662Z,79.20
2022-08-21T06:06:20.142Z,79.12
2022-08-21T06:09:17.619Z,79.01
2022-08-21T06:12:15.076Z,78.70
2022-08-21T06:15:12.563Z,78.41
2022-08-21T06:18:10.052Z,78.16
2022-08-21T06:21:07.537Z,78.08
2022-08-21T06:24:05.862Z,78.04
2022-08-21T06:27:03.330Z,78.00
2022-08-21T06:30:00.789Z,77.98
2022-08-21T06:32:58.745Z,77.75
2022-08-21T06:35:56.375Z,77.52
2022-08-21T06:38:53.883Z,77.54
2022-08-21T06:41:54.590Z,77.41
2022-08-21T06:44:52.054Z,77.27
2022-08-21T06:47:49.529Z,77.10
2022-08-21T06:50:46.985Z,76.97
2022-08-21T06:53:44.458Z,76.80
2022-08-21T06:56:41.946Z,76.69
2022-08-21T06:59:39.450Z,76.68
2022-08-21T07:02:37.841Z,76.56
2022-08-21T07:05:39.079Z,76.57
2022-08-21T07:08:36.579Z,76.55
2022-08-21T07:11:42.428Z,76.68
2022-08-21T07:14:45.606Z,76.65
2022-08-21T07:17:43.573Z,76.58
2022-08-21T07:20:41.056Z,76.69
2022-08-21T07:23:38.532Z,76.84
2022-08-21T07:26:36.053Z,76.90
2022-08-21T07:29:33.526Z,76.78
2022-08-21T07:32:31.009Z,76.69
2022-08-21T07:35:29.375Z,76.54
2022-08-21T07:38:26.843Z,76.68
2022-08-21T07:41:24.329Z,76.79
2022-08-21T07:44:21.790Z,76.64
2022-08-21T07:47:29.352Z,76.87
2022-08-21T07:50:36.704Z,77.06
2022-08-21T07:53:34.196Z,77.27
2022-08-21T07:56:31.671Z,77.26
2022-08-21T07:59:29.401Z,77.35
2022-08-21T08:02:26.863Z,77.14
2022-08-21T08:05:24.329Z,76.77
2022-08-21T08:08:21.828Z,76.35
2022-08-21T08:11:19.412Z,76.01
2022-08-21T08:14:18.338Z,76.00
2022-08-21T08:17:15.821Z,75.72
2022-08-21T08:20:13.617Z,75.32
2022-08-21T08:23:11.109Z,75.11
2022-08-21T08:26:08.673Z,74.94
2022-08-21T08:29:06.157Z,74.41
2022-08-21T08:32:03.632Z,73.56
2022-08-21T08:35:01.105Z,72.75
2022-08-21T08:37:58.584Z,72.13
2022-08-21T08:40:56.059Z,71.95
2022-08-21T08:43:53.548Z,71.73
2022-08-21T08:46:51.396Z,71.18
2022-08-21T08:49:51.191Z,71.29
2022-08-21T08:52:48.680Z,71.46
2022-08-21T08:55:46.158Z,71.82
2022-08-21T08:58:43.743Z,72.21
2022-08-21T09:01:41.288Z,72.65
2022-08-21T09:04:38.800Z,73.18
2022-08-21T09:07:36.356Z,73.73
2022-08-21T09:10:33.850Z,73.85
2022-08-21T09:13:33.395Z,74.16
2022-08-21T09:16:34.156Z,74.11
2022-08-21T09:19:31.648Z,73.85
2022-08-21T09:22:29.116Z,73.35
2022-08-21T09:25:26.703Z,73.22
2022-08-21T09:28:24.182Z,73.02
2022-08-21T09:31:21.721Z,72.87
2022-08-21T09:34:19.186Z,72.98
2022-08-21T09:37:16.662Z,72.95
2022-08-21T09:40:14.681Z,72.88
2022-08-21T09:43:12.185Z,72.54
2022-08-21T09:46:11.253Z,72.64
2022-08-21T09:49:14.858Z,72.37
2022-08-21T09:52:13.989Z,72.12
2022-08-21T09:55:31.546Z,71.58
2022-08-21T09:58:29.028Z,71.63
2022-08-21T10:01:26.584Z,70.82
2022-08-21T10:04:24.130Z,70.63
2022-08-21T10:07:21.626Z,70.24
2022-08-21T10:10:19.108Z,70.40
2022-08-21T10:13:16.595Z,70.81
2022-08-21T10:16:14.082Z,70.49
2022-08-21T10:19:11.570Z,70.60
2022-08-21T10:22:09.057Z,70.58
2022-08-21T10:25:06.532Z,70.83
2022-08-21T10:28:04.024Z,71.00
2022-08-21T10:31:01.494Z,71.09
2022-08-21T10:33:58.961Z,71.29
2022-08-21T10:36:56.431Z,71.37
2022-08-21T10:39:53.952Z,72.16
2022-08-21T10:42:51.564Z,73.10
2022-08-21T10:45:49.290Z,73.51
2022-08-21T10:48:46.772Z,73.78
2022-08-21T10:51:44.248Z,74.00
2022-08-21T10:54:41.735Z,74.09
2022-08-21T10:57:39.236Z,74.16
2022-08-21T11:00:37.644Z,74.71
2022-08-21T11:03:35.273Z,75.12
2022-08-21T11:06:32.746Z,75.56
2022-08-21T11:09:30.238Z,76.06
2022-08-21T11:12:27.961Z,75.61
2022-08-21T11:15:29.662Z,75.67
2022-08-21T11:18:27.491Z,75.74
2022-08-21T11:21:25.017Z,75.47
2022-08-21T11:24:22.558Z,73.84
2022-08-21T11:27:20.038Z,73.45
2022-08-21T11:30:17.546Z,72.58
2022-08-21T11:33:20.851Z,71.97
2022-08-21T11:36:19.235Z,71.40
2022-08-21T11:39:16.784Z,70.53
2022-08-21T11:42:14.382Z,69.99
2022-08-21T11:45:11.865Z,69.57
2022-08-21T11:48:09.361Z,69.18
2022-08-21T11:51:06.858Z,68.78
2022-08-21T11:54:07.376Z,67.84
2022-08-21T11:57:05.073Z,68.14
2022-08-21T12:00:02.565Z,68.24
2022-08-21T12:03:00.193Z,67.29
2022-08-21T12:05:57.854Z,66.78
2022-08-21T12:08:55.351Z,66.90
2022-08-21T12:11:52.809Z,66.44
2022-08-21T12:14:50.294Z,65.65
2022-08-21T12:17:47.778Z,65.91
2022-08-21T12:20:50.611Z,66.45
2022-08-21T12:23:48.542Z,66.90
2022-08-21T12:26:46.011Z,67.43
2022-08-21T12:29:43.494Z,67.71
2022-08-21T12:32:40.948Z,68.27
2022-08-21T12:35:38.433Z,68.67
2022-08-21T12:38:35.918Z,69.14
2022-08-21T12:41:33.389Z,69.66
2022-08-21T12:44:30.884Z,70.22
2022-08-21T12:47:28.351Z,70.22
2022-08-21T12:50:25.856Z,70.70
2022-08-21T12:53:23.312Z,71.21
2022-08-21T12:56:20.956Z,71.74
2022-08-21T12:59:18.460Z,72.04
2022-08-21T13:02:15.999Z,72.47
2022-08-21T13:05:13.578Z,72.36
2022-08-21T13:08:11.953Z,72.28
2022-08-21T13:11:15.102Z,72.50
2022-08-21T13:14:12.913Z,72.32
2022-08-21T13:17:10.804Z,72.52
2022-08-21T13:20:09.008Z,72.33
2022-08-21T13:23:06.459Z,72.68
2022-08-21T13:26:04.546Z,73.05
2022-08-21T13:29:02.023Z,73.12
2022-08-21T13:31:59.773Z,73.23
2022-08-21T13:34:58.877Z,73.26
2022-08-21T13:37:56.374Z,73.37
2022-08-21T13:40:53.919Z,73.39
2022-08-21T13:43:51.389Z,73.21
2022-08-21T13:46:48.946Z,73.22
2022-08-21T13:49:47.845Z,73.55
2022-08-21T13:52:45.294Z,73.98
2022-08-21T13:55:42.766Z,74.20
2022-08-21T13:58:40.226Z,74.02
2022-08-21T14:01:37.783Z,74.13
2022-08-21T14:04:35.310Z,74.08
2022-08-21T14:07:33.478Z,73.65
2022-08-21T14:10:31.365Z,73.23
2022-08-21T14:13:28.820Z,73.19
2022-08-21T14:16:26.456Z,72.82
2022-08-21T14:19:23.929Z,72.46
2022-08-21T14:22:21.409Z,72.16
2022-08-21T14:25:19.379Z,72.04
2022-08-21T14:28:19.647Z,72.07
2022-08-21T14:31:17.524Z,71.75
2022-08-21T14:34:19.604Z,71.72
2022-08-21T14:37:17.849Z,71.87
2022-08-21T14:40:15.713Z,71.86
2022-08-21T14:43:13.218Z,71.81
2022-08-21T14:46:10.684Z,72.15
2022-08-21T14:49:08.700Z,71.98
2022-08-21T14:52:06.176Z,71.69
2022-08-21T14:55:03.646Z,71.63
2022-08-21T14:58:01.153Z,71.53
2022-08-21T15:00:59.204Z,71.74
2022-08-21T15:03:56.724Z,71.99
2022-08-21T15:06:54.226Z,72.12
2022-08-21T15:09:51.698Z,71.97
2022-08-21T15:12:49.173Z,72.19
2022-08-21T15:15:46.642Z,72.48
2022-08-21T15:18:44.132Z,72.57
2022-08-21T15:21:41.610Z,72.52
2022-08-21T15:24:39.101Z,72.37
2022-08-21T15:27:36.573Z,72.60
2022-08-21T15:30:34.050Z,72.41
2022-08-21T15:33:31.530Z,72.47
2022-08-21T15:36:28.982Z,72.22
2022-08-21T15:39:30.956Z,72.21
2022-08-21T15:42:29.208Z,72.40
2022-08-21T15:45:27.126Z,71.93
2022-08-21T15:48:24.625Z,71.83
2022-08-21T15:51:22.151Z,71.70
2022-08-21T15:54:19.632Z,71.47
2022-08-21T15:57:17.600Z,71.37
2022-08-21T16:00:15.432Z,71.25
2022-08-21T16:03:15.049Z,71.34
2022-08-21T16:06:12.528Z,70.92
2022-08-21T16:09:10.003Z,71.04
2022-08-21T16:12:07.509Z,70.72
2022-08-21T16:15:04.997Z,70.62
2022-08-21T16:18:02.512Z,70.78
2022-08-21T16:21:00.002Z,70.88
2022-08-21T16:23:57.499Z,70.95
2022-08-21T16:26:57.825Z,71.32
2022-08-21T16:29:56.061Z,71.29
2022-08-21T16:32:53.568Z,71.30
2022-08-21T16:35:51.063Z,71.35
2022-08-21T16:38:48.599Z,71.18
2022-08-21T16:41:46.082Z,71.07
2022-08-21T16:44:43.583Z,71.08
2022-08-21T16:47:46.300Z,70.94
2022-08-21T16:50:47.889Z,70.71
2022-08-21T16:53:48.105Z,70.66
2022-08-21T16:56:47.889Z,70.73
2022-08-21T16:59:45.660Z,70.74
2022-08-21T17:02:44.577Z,70.64
2022-08-21T17:05:43.079Z,70.63
2022-08-21T17:08:40.662Z,70.78
2022-08-21T17:11:38.548Z,70.67
2022-08-21T17:14:36.377Z,70.63
2022-08-21T17:17:33.842Z,70.64
2022-08-21T17:20:31.646Z,70.69
2022-08-21T17:23:29.284Z,70.71
2022-08-21T17:26:26.778Z,70.66
2022-08-21T17:29:24.287Z,70.73
2022-08-21T17:32:21.801Z,70.69
2022-08-21T17:35:19.298Z,70.71
2022-08-21T17:38:16.790Z,70.72
2022-08-21T17:41:14.292Z,70.77
2022-08-21T17:44:15.398Z,70.80
2022-08-21T17:47:15.957Z,70.76
2022-08-21T17:50:13.878Z,70.77
2022-08-21T17:53:11.344Z,70.74
2022-08-21T17:56:08.826Z,70.76
2022-08-21T17:59:06.860Z,70.75
2022-08-21T18:02:04.331Z,70.78
2022-08-21T18:05:07.292Z,70.83
2022-08-21T18:08:04.772Z,70.83
2022-08-21T18:11:02.286Z,70.77
2022-08-21T18:14:05.178Z,70.91
2022-08-21T18:17:04.348Z,70.95
2022-08-21T18:20:02.374Z,71.09
2022-08-21T18:23:00.106Z,71.13
2022-08-21T18:25:58.352Z,71.16
2022-08-21T18:28:58.908Z,71.14
2022-08-21T18:31:56.740Z,71.23
2022-08-21T18:34:54.513Z,71.28
2022-08-21T18:37:52.043Z,71.23
2022-08-21T18:40:53.771Z,71.29
2022-08-21T18:43:53.342Z,71.37
2022-08-21T18:46:51.009Z,71.44
2022-08-21T18:49:48.985Z,71.36
2022-08-21T18:52:52.884Z,71.33
2022-08-21T18:55:52.602Z,71.36
2022-08-21T18:58:51.402Z,71.43
2022-08-21T19:01:49.099Z,71.29
2022-08-21T19:04:48.127Z,71.27
2022-08-21T19:07:46.102Z,71.25
2022-08-21T19:10:43.922Z,71.31
2022-08-21T19:13:43.578Z,71.32
2022-08-21T19:16:41.155Z,71.39
2022-08-21T19:19:44.730Z,71.44
2022-08-21T19:22:43.191Z,71.43
2022-08-21T19:25:51.948Z,71.49
2022-08-21T19:28:49.983Z,71.59
2022-08-21T19:31:49.483Z,71.65
2022-08-21T19:34:48.024Z,71.70
2022-08-21T19:37:46.701Z,71.95
2022-08-21T19:40:46.768Z,71.99
2022-08-21T19:43:45.029Z,72.09
2022-08-21T19:46:42.965Z,72.23
2022-08-21T19:49:42.063Z,72.37
2022-08-21T19:52:39.959Z,72.55
2022-08-21T19:55:49.291Z,72.65
2022-08-21T19:58:50.036Z,72.69
2022-08-21T20:01:47.660Z,72.69
2022-08-21T20:04:53.985Z,72.86
2022-08-21T20:07:52.686Z,72.96
2022-08-21T20:10:51.591Z,73.02
2022-08-21T20:13:49.317Z,73.00
2022-08-21T20:16:47.821Z,72.95
2022-08-21T20:19:45.965Z,72.86
2022-08-21T20:22:46.285Z,72.86
2022-08-21T20:25:44.441Z,72.83
2022-08-21T20:28:42.281Z,72.82
2022-08-21T20:31:40.767Z,72.80
2022-08-21T20:34:38.359Z,72.81
2022-08-21T20:37:37.382Z,72.76
2022-08-21T20:40:35.801Z,72.63
2022-08-21T20:43:33.326Z,72.54
2022-08-21T20:46:30.800Z,72.37
2022-08-21T20:49:28.297Z,72.15
2022-08-21T20:52:26.175Z,72.02
2022-08-21T20:55:29.076Z,71.92
2022-08-21T20:58:29.716Z,71.98
2022-08-21T21:01:27.490Z,72.07
2022-08-21T21:04:24.953Z,72.14
2022-08-21T21:07:23.697Z,72.03
2022-08-21T21:10:21.821Z,72.24
2022-08-21T21:13:21.055Z,72.38
2022-08-21T21:16:18.545Z,72.42
2022-08-21T21:22:33.522Z,72.63
2022-08-21T21:25:40.110Z,72.93
2022-08-21T21:28:38.214Z,73.11
2022-08-21T21:31:36.672Z,73.66
2022-08-21T21:34:35.689Z,73.72
2022-08-21T21:37:35.075Z,74.14
2022-08-21T21:40:32.869Z,74.43
2022-08-21T21:43:31.168Z,74.72
2022-08-21T21:46:28.730Z,75.10
2022-08-21T21:49:26.292Z,75.54
2022-08-21T21:52:23.779Z,75.69
2022-08-21T21:55:23.599Z,76.05
2022-08-21T21:58:24.751Z,76.44
2022-08-21T22:01:23.954Z,76.62
2022-08-21T22:04:21.526Z,76.81
2022-08-21T22:07:21.317Z,76.91
2022-08-21T22:10:30.104Z,76.59
2022-08-21T22:13:28.553Z,76.43
2022-08-21T22:16:26.055Z,76.06
2022-08-21T22:19:24.081Z,75.89
2022-08-21T22:22:22.042Z,76.19
2022-08-21T22:25:20.338Z,76.17
2022-08-21T22:28:17.799Z,76.52
2022-08-21T22:31:22.881Z,76.41
2022-08-21T22:34:20.339Z,76.62
2022-08-21T22:37:20.458Z,76.69
2022-08-21T22:40:18.374Z,77.07
2022-08-21T22:43:16.143Z,77.03
2022-08-21T22:46:14.516Z,77.36
2022-08-21T22:49:12.392Z,77.61
2022-08-21T22:52:10.724Z,77.55
2022-08-21T22:55:08.443Z,77.81
2022-08-21T22:58:05.931Z,77.96
2022-08-21T23:01:03.606Z,77.59
2022-08-21T23:04:01.069Z,77.81
2022-08-21T23:06:58.525Z,78.09
2022-08-21T23:09:57.367Z,78.36
2022-08-21T23:12:55.903Z,79.11
2022-08-21T23:15:53.929Z,78.77
2022-08-21T23:18:51.459Z,78.69
2022-08-21T23:21:49.075Z,79.22
2022-08-21T23:24:49.641Z,79.44
2022-08-21T23:27:47.594Z,79.78
2022-08-21T23:30:45.124Z,79.64
2022-08-21T23:33:42.919Z,80.02
2022-08-21T23:36:58.190Z,80.04
2022-08-21T23:39:55.831Z,80.04
2022-08-21T23:42:53.318Z,79.88
2022-08-21T23:45:50.783Z,79.82
2022-08-21T23:48:48.266Z,80.19
2022-08-21T23:51:49.491Z,80.27
2022-08-21T23:54:48.086Z,80.62
2022-08-21T23:57:45.714Z,80.64
